createdAt,value
2022-08-23T00:01:26.282Z,16.23
2022-08-23T00:03:58.466Z,15.02
2022-08-23T00:06:25.766Z,15.48
2022-08-23T00:08:56.245Z,15.63
2022-08-23T00:11:40.321Z,14.55
2022-08-23T00:14:16.120Z,14.93
2022-08-23T00:19:13.093Z,13.85
2022-08-23T00:21:40.914Z,15.57
2022-08-23T00:24:08.583Z,15.13
2022-08-23T00:27:00.030Z,15.50
2022-08-23T00:29:35.400Z,15.27
2022-08-23T00:32:02.619Z,15.13
2022-08-23T00:34:29.513Z,14.13
2022-08-23T00:36:56.885Z,15.20
2022-08-23T00:39:23.711Z,14.55
2022-08-23T00:41:51.324Z,14.90
2022-08-23T00:44:51.807Z,14.25
2022-08-23T00:47:39.715Z,14.10
2022-08-23T00:50:23.384Z,13.40
2022-08-23T00:53:05.221Z,14.55
2022-08-23T00:55:32.829Z,14.18
2022-08-23T00:58:00.580Z,14.02
2022-08-23T01:00:31.018Z,14.32
2022-08-23T01:02:57.814Z,14.10
2022-08-23T01:05:35.605Z,14.20
2022-08-23T01:08:02.531Z,14.38
2022-08-23T01:10:49.897Z,14.00
2022-08-23T01:13:30.118Z,14.32
2022-08-23T01:16:03.718Z,14.38
2022-08-23T01:18:31.534Z,14.20
2022-08-23T01:21:10.815Z,13.57
2022-08-23T01:23:42.423Z,14.48
2022-08-23T01:26:11.475Z,13.93
2022-08-23T01:28:40.936Z,13.38
2022-08-23T01:31:14.092Z,13.43
2022-08-23T01:33:42.144Z,12.55
2022-08-23T01:36:12.086Z,12.75
2022-08-23T01:38:38.910Z,13.48
2022-08-23T01:41:06.956Z,13.63
2022-08-23T01:43:34.419Z,12.52
2022-08-23T01:46:12.176Z,12.90
2022-08-23T01:48:39.490Z,6.85
2022-08-23T01:51:06.135Z,12.48
2022-08-23T01:53:32.840Z,13.38
2022-08-23T01:56:01.837Z,12.93
2022-08-23T01:58:31.418Z,12.35
2022-08-23T02:00:58.168Z,11.93
2022-08-23T02:03:25.195Z,12.07
2022-08-23T02:08:37.836Z,12.32
2022-08-23T02:11:09.491Z,12.35
2022-08-23T02:13:36.306Z,11.80
2022-08-23T02:16:03.196Z,11.90
2022-08-23T02:18:30.493Z,12.57
2022-08-23T02:20:57.283Z,12.75
2022-08-23T02:23:24.199Z,14.40
2022-08-23T02:25:54.021Z,14.35
2022-08-23T02:28:22.355Z,13.93
2022-08-23T02:30:50.229Z,13.68
2022-08-23T02:33:17.407Z,11.52
2022-08-23T02:35:44.591Z,11.70
2022-08-23T02:38:12.538Z,11.77
2022-08-23T02:40:40.296Z,12.73
2022-08-23T02:43:07.074Z,11.05
2022-08-23T02:45:33.954Z,10.73
2022-08-23T02:48:00.667Z,13.02
2022-08-23T02:50:27.589Z,14.15
2022-08-23T02:52:55.079Z,12.98
2022-08-23T02:55:21.800Z,12.50
2022-08-23T02:57:48.384Z,13.15
2022-08-23T03:00:24.956Z,10.95
2022-08-23T03:02:51.778Z,13.40
2022-08-23T03:05:18.530Z,14.48
2022-08-23T03:07:45.425Z,13.00
2022-08-23T03:10:12.656Z,14.82
2022-08-23T03:12:39.545Z,14.32
2022-08-23T03:15:07.065Z,14.55
2022-08-23T03:17:34.590Z,14.70
2022-08-23T03:20:01.113Z,14.48
2022-08-23T03:22:27.660Z,14.45
2022-08-23T03:24:54.185Z,13.98
2022-08-23T03:27:20.711Z,14.50
2022-08-23T03:29:47.403Z,15.65
2022-08-23T03:32:15.427Z,14.48
2022-08-23T03:34:42.471Z,14.32
2022-08-23T03:37:09.102Z,14.27
2022-08-23T03:39:35.980Z,14.30
2022-08-23T03:42:02.593Z,13.20
2022-08-23T03:44:29.155Z,14.07
2022-08-23T03:46:55.735Z,14.30
2022-08-23T03:49:22.430Z,12.95
2022-08-23T03:51:48.941Z,13.43
2022-08-23T03:54:15.588Z,13.48
2022-08-23T03:57:03.027Z,13.70
2022-08-23T03:59:32.594Z,13.45
2022-08-23T04:01:59.596Z,12.50
2022-08-23T04:04:26.211Z,13.55
2022-08-23T04:06:52.921Z,13.45
2022-08-23T04:09:19.910Z,12.32
2022-08-23T04:11:46.712Z,13.32
2022-08-23T04:14:13.239Z,12.52
2022-08-23T04:16:40.445Z,11.73
2022-08-23T04:19:09.880Z,12.45
2022-08-23T04:21:38.201Z,12.07
2022-08-23T04:24:04.922Z,12.15
2022-08-23T04:26:31.574Z,11.65
2022-08-23T04:28:58.711Z,11.30
2022-08-23T04:31:29.143Z,12.23
2022-08-23T04:39:01.088Z,11.07
2022-08-23T04:41:46.251Z,11.32
2022-08-23T04:44:14.829Z,6.75
2022-08-23T04:46:43.678Z,7.90
2022-08-23T04:49:12.150Z,11.27
2022-08-23T04:51:38.977Z,11.90
2022-08-23T04:54:07.829Z,11.68
2022-08-23T04:56:35.475Z,11.38
2022-08-23T04:59:03.098Z,11.05
2022-08-23T05:01:29.709Z,10.73
2022-08-23T05:03:57.163Z,12.32
2022-08-23T05:06:24.564Z,11.88
2022-08-23T05:08:51.183Z,11.05
2022-08-23T05:11:19.080Z,11.77
2022-08-23T05:13:45.593Z,12.25
2022-08-23T05:16:12.409Z,11.55
2022-08-23T05:18:39.016Z,10.93
2022-08-23T05:21:05.859Z,11.38
2022-08-23T05:23:32.909Z,10.25
2022-08-23T05:25:59.634Z,11.05
2022-08-23T05:28:32.715Z,10.75
2022-08-23T05:31:18.442Z,10.20
2022-08-23T05:33:46.271Z,10.52
2022-08-23T05:36:15.086Z,10.45
2022-08-23T05:38:42.457Z,9.60
2022-08-23T05:41:09.672Z,8.63
2022-08-23T05:43:36.786Z,9.75
2022-08-23T05:46:12.834Z,9.45
2022-08-23T05:48:43.826Z,9.77
2022-08-23T05:51:18.934Z,9.55
2022-08-23T05:53:46.815Z,9.90
2022-08-23T05:56:22.962Z,10.07
2022-08-23T05:58:52.155Z,10.63
2022-08-23T06:01:20.791Z,9.50
2022-08-23T06:03:49.920Z,10.48
2022-08-23T06:06:18.139Z,9.80
2022-08-23T06:08:48.702Z,9.30
2022-08-23T06:11:21.321Z,10.40
2022-08-23T06:13:54.721Z,9.90
2022-08-23T06:16:27.026Z,10.23
2022-08-23T06:18:55.997Z,10.77
2022-08-23T06:21:23.630Z,9.35
2022-08-23T06:23:50.649Z,9.88
2022-08-23T06:26:18.583Z,9.05
2022-08-23T06:28:50.939Z,10.35
2022-08-23T06:31:41.696Z,9.93
2022-08-23T06:34:10.627Z,9.32
2022-08-23T06:36:37.362Z,9.70
2022-08-23T06:39:06.227Z,10.85
2022-08-23T06:41:33.702Z,10.23
2022-08-23T06:44:00.303Z,10.32
2022-08-23T06:46:29.387Z,10.00
2022-08-23T06:48:57.715Z,9.73
2022-08-23T06:51:28.521Z,9.73
2022-08-23T06:53:57.255Z,10.93
2022-08-23T06:56:29.849Z,10.07
2022-08-23T06:58:56.986Z,9.77
2022-08-23T07:01:46.770Z,12.27
2022-08-23T07:04:16.005Z,11.60
2022-08-23T07:06:42.712Z,11.63
2022-08-23T07:09:09.251Z,10.32
2022-08-23T07:11:36.756Z,9.38
2022-08-23T07:14:10.509Z,9.50
2022-08-23T07:16:40.487Z,10.25
2022-08-23T07:19:09.161Z,8.90
2022-08-23T07:21:36.447Z,10.35
2022-08-23T07:24:03.930Z,8.95
2022-08-23T07:26:31.957Z,9.30
2022-08-23T07:28:58.491Z,9.63
2022-08-23T07:31:30.535Z,10.52
2022-08-23T07:34:05.395Z,11.32
2022-08-23T07:36:33.598Z,10.85
2022-08-23T07:39:00.973Z,10.48
2022-08-23T07:41:32.810Z,12.10
2022-08-23T07:44:03.900Z,11.55
2022-08-23T07:46:32.988Z,10.57
2022-08-23T07:49:01.029Z,11.18
2022-08-23T07:51:29.463Z,10.88
2022-08-23T07:53:56.255Z,10.35
2022-08-23T07:56:22.808Z,11.00
2022-08-23T07:58:50.303Z,9.85
2022-08-23T08:01:27.307Z,12.05
2022-08-23T08:03:55.690Z,12.25
2022-08-23T08:06:28.771Z,11.98
2022-08-23T08:08:56.738Z,11.07
2022-08-23T08:11:30.769Z,10.98
2022-08-23T08:14:03.426Z,10.98
2022-08-23T08:16:33.900Z,11.15
2022-08-23T08:19:02.254Z,11.02
2022-08-23T08:21:29.290Z,10.88
2022-08-23T08:23:57.529Z,11.02
2022-08-23T08:26:25.415Z,10.85
2022-08-23T08:28:52.512Z,11.45
2022-08-23T08:31:19.236Z,10.63
2022-08-23T08:33:45.908Z,10.82
2022-08-23T08:36:41.227Z,8.90
2022-08-23T08:39:11.550Z,9.40
2022-08-23T08:41:42.128Z,9.88
2022-08-23T08:44:22.491Z,8.38
2022-08-23T08:46:53.314Z,8.63
2022-08-23T08:49:38.590Z,7.57
2022-08-23T08:52:10.916Z,8.10
2022-08-23T08:54:38.562Z,8.00
2022-08-23T08:57:08.081Z,8.18
2022-08-23T08:59:58.569Z,8.20
2022-08-23T09:02:33.494Z,7.68
2022-08-23T09:05:04.754Z,7.78
2022-08-23T09:07:42.447Z,8.32
2022-08-23T09:10:19.410Z,7.80
2022-08-23T09:13:22.384Z,8.18
2022-08-23T09:16:28.814Z,7.97
2022-08-23T09:18:55.595Z,7.93
2022-08-23T09:21:22.602Z,7.70
2022-08-23T09:24:00.486Z,7.65
2022-08-23T09:26:32.534Z,7.40
2022-08-23T09:29:02.837Z,7.35
2022-08-23T09:31:44.969Z,7.57
2022-08-23T09:34:18.907Z,8.18
2022-08-23T09:36:45.666Z,7.78
2022-08-23T09:39:30.533Z,7.82
2022-08-23T09:41:58.196Z,7.70
2022-08-23T09:44:40.076Z,7.65
2022-08-23T09:47:15.067Z,7.57
2022-08-23T09:49:43.590Z,7.75
2022-08-23T09:52:32.467Z,7.40
2022-08-23T09:55:04.281Z,7.93
2022-08-23T09:57:33.361Z,7.72
2022-08-23T10:00:27.845Z,7.47
2022-08-23T10:02:57.632Z,7.47
2022-08-23T10:05:38.225Z,7.38
2022-08-23T10:08:08.852Z,7.13
2022-08-23T10:10:51.065Z,8.13
2022-08-23T10:13:18.234Z,7.45
2022-08-23T10:15:56.440Z,7.88
2022-08-23T10:21:07.939Z,7.78
2022-08-23T10:24:20.715Z,6.85
2022-08-23T10:27:27.724Z,7.05
2022-08-23T10:30:07.663Z,6.70
2022-08-23T10:33:05.623Z,7.47
2022-08-23T10:36:02.064Z,7.03
2022-08-23T10:38:48.397Z,6.55
2022-08-23T10:41:21.868Z,6.90
2022-08-23T10:44:12.973Z,6.70
2022-08-23T10:46:53.000Z,6.03
2022-08-23T10:49:20.071Z,6.43
2022-08-23T10:51:51.947Z,6.38
2022-08-23T10:54:59.849Z,6.32
2022-08-23T10:57:40.090Z,6.13
2022-08-23T11:00:11.905Z,6.63
2022-08-23T11:02:53.253Z,6.10
2022-08-23T11:05:22.339Z,6.50
2022-08-23T11:08:07.723Z,5.95
2022-08-23T11:10:40.199Z,7.03
2022-08-23T11:13:18.795Z,6.60
2022-08-23T11:15:55.447Z,6.47
2022-08-23T11:18:33.968Z,5.93
2022-08-23T11:21:18.850Z,5.93
2022-08-23T11:23:54.693Z,5.40
2022-08-23T11:26:27.702Z,5.80
2022-08-23T11:29:17.294Z,5.93
2022-08-23T11:31:58.586Z,6.03
2022-08-23T11:34:27.281Z,5.32
2022-08-23T11:37:24.345Z,5.75
2022-08-23T11:40:00.074Z,5.38
2022-08-23T11:42:39.881Z,5.20
2022-08-23T11:45:46.604Z,4.88
2022-08-23T11:48:43.947Z,5.18
2022-08-23T11:51:38.527Z,5.28
2022-08-23T11:54:43.278Z,5.05
2022-08-23T11:57:54.724Z,5.40
2022-08-23T12:00:32.087Z,5.38
2022-08-23T12:03:06.201Z,4.88
2022-08-23T12:05:39.149Z,5.10
2022-08-23T12:08:06.139Z,5.20
2022-08-23T12:10:41.349Z,5.30
2022-08-23T12:13:19.943Z,5.22
2022-08-23T12:16:16.909Z,4.95
2022-08-23T12:18:53.689Z,5.38
2022-08-23T12:21:33.031Z,5.20
2022-08-23T12:24:14.460Z,5.45
2022-08-23T12:26:58.264Z,6.20
2022-08-23T12:29:30.474Z,6.30
2022-08-23T12:32:21.569Z,6.95
2022-08-23T12:35:07.274Z,7.07
2022-08-23T12:38:02.773Z,7.07
2022-08-23T12:40:37.239Z,7.50
2022-08-23T12:43:22.573Z,7.20
2022-08-23T12:45:58.961Z,7.47
2022-08-23T12:48:28.914Z,7.78
2022-08-23T12:51:08.287Z,7.85
2022-08-23T12:53:44.547Z,7.82
2022-08-23T12:56:18.593Z,8.45
2022-08-23T12:59:06.796Z,8.10
2022-08-23T13:01:38.956Z,8.23
2022-08-23T13:04:10.964Z,8.07
2022-08-23T13:06:43.739Z,8.25
2022-08-23T13:12:20.392Z,8.65
2022-08-23T13:14:50.682Z,8.75
2022-08-23T13:17:26.338Z,9.02
2022-08-23T13:22:26.659Z,8.80
2022-08-23T13:25:28.666Z,9.07
2022-08-23T13:27:55.005Z,9.13
2022-08-23T13:30:26.842Z,9.95
2022-08-23T13:33:13.261Z,10.05
2022-08-23T13:35:48.614Z,10.48
2022-08-23T13:38:26.007Z,9.95
2022-08-23T13:41:10.541Z,10.95
2022-08-23T13:43:49.078Z,10.82
2022-08-23T13:46:19.354Z,11.48
2022-08-23T13:49:00.945Z,12.10
2022-08-23T13:51:37.094Z,11.75
2022-08-23T13:54:10.510Z,11.55
2022-08-23T13:56:42.775Z,12.10
2022-08-23T13:59:31.911Z,12.45
2022-08-23T14:02:05.102Z,11.00
2022-08-23T14:04:31.615Z,11.52
2022-08-23T14:06:58.227Z,11.32
2022-08-23T14:09:24.971Z,12.40
2022-08-23T14:11:55.198Z,11.85
2022-08-23T14:14:22.064Z,11.25
2022-08-23T14:16:48.717Z,11.98
2022-08-23T14:19:16.475Z,11.98
2022-08-23T14:24:37.173Z,11.82
2022-08-23T14:27:04.332Z,12.60
2022-08-23T14:29:31.149Z,11.85
2022-08-23T14:31:59.213Z,11.73
2022-08-23T14:34:30.399Z,10.98
2022-08-23T14:39:45.007Z,9.70
2022-08-23T14:42:16.757Z,9.43
2022-08-23T14:44:43.344Z,9.63
2022-08-23T14:47:09.882Z,9.93
2022-08-23T14:49:36.871Z,9.55
2022-08-23T14:52:04.347Z,10.73
2022-08-23T14:54:31.309Z,9.10
2022-08-23T14:56:58.012Z,9.13
2022-08-23T14:59:24.756Z,9.75
2022-08-23T15:01:53.349Z,9.25
2022-08-23T15:04:23.095Z,9.25
2022-08-23T15:07:16.223Z,9.88
2022-08-23T15:09:38.365Z,9.52
2022-08-23T15:14:52.664Z,9.18
2022-08-23T15:17:19.065Z,9.70
2022-08-23T15:19:45.579Z,9.50
2022-08-23T15:22:21.386Z,9.18
2022-08-23T15:24:49.646Z,8.93
2022-08-23T15:27:17.888Z,9.55
2022-08-23T15:29:44.431Z,9.05
2022-08-23T15:32:11.047Z,9.07
2022-08-23T15:34:40.228Z,9.73
2022-08-23T15:37:13.989Z,9.15
2022-08-23T15:39:42.395Z,9.27
2022-08-23T15:42:09.131Z,9.80
2022-08-23T15:44:35.786Z,9.35
2022-08-23T15:47:18.439Z,10.00
2022-08-23T15:49:44.963Z,9.32
2022-08-23T15:52:11.502Z,10.90
2022-08-23T15:54:38.101Z,10.75
2022-08-23T15:57:04.978Z,10.57
2022-08-23T15:59:36.153Z,10.70
2022-08-23T16:02:02.969Z,11.18
2022-08-23T16:04:34.936Z,10.82
2022-08-23T16:07:05.601Z,10.50
2022-08-23T16:09:34.312Z,11.90
2022-08-23T16:12:01.762Z,11.20
2022-08-23T16:14:28.476Z,11.48
2022-08-23T16:16:55.092Z,11.93
2022-08-23T16:19:21.674Z,12.15
2022-08-23T16:21:48.823Z,12.15
2022-08-23T16:24:15.332Z,11.93
2022-08-23T16:26:45.306Z,12.25
2022-08-23T16:29:14.694Z,11.77
2022-08-23T16:31:41.774Z,12.63
2022-08-23T16:34:13.469Z,11.85
2022-08-23T16:36:43.986Z,11.95
2022-08-23T16:39:12.580Z,12.15
2022-08-23T16:41:39.520Z,11.90
2022-08-23T16:44:06.185Z,12.00
2022-08-23T16:46:33.087Z,12.80
2022-08-23T16:48:59.620Z,11.80
2022-08-23T16:51:26.214Z,12.13
2022-08-23T16:54:02.232Z,11.85
2022-08-23T16:56:30.956Z,13.15
2022-08-23T16:58:57.824Z,12.90
2022-08-23T17:01:24.379Z,12.63
2022-08-23T17:03:51.364Z,12.30
2022-08-23T17:06:18.217Z,13.07
2022-08-23T17:08:45.209Z,13.23
2022-08-23T17:11:14.743Z,12.52
2022-08-23T17:13:41.333Z,11.95
2022-08-23T17:16:10.568Z,13.05
2022-08-23T17:18:38.487Z,12.75
2022-08-23T17:21:05.772Z,12.70
2022-08-23T17:23:32.477Z,12.45
2022-08-23T17:25:59.664Z,12.65
2022-08-23T17:28:26.433Z,12.05
2022-08-23T17:30:54.732Z,12.23
2022-08-23T17:33:22.327Z,11.82
2022-08-23T17:35:48.983Z,11.20
2022-08-23T17:38:15.721Z,12.77
2022-08-23T17:40:42.655Z,11.82
2022-08-23T17:43:09.663Z,12.43
2022-08-23T17:45:43.864Z,12.82
2022-08-23T17:48:11.369Z,11.30
2022-08-23T17:50:39.386Z,12.45
2022-08-23T17:53:06.647Z,12.50
2022-08-23T17:55:35.090Z,12.43
2022-08-23T17:58:04.011Z,11.85
2022-08-23T18:00:32.447Z,12.32
2022-08-23T18:02:59.906Z,12.43
2022-08-23T18:05:28.030Z,12.48
2022-08-23T18:07:54.613Z,13.00
2022-08-23T18:10:21.464Z,12.52
2022-08-23T18:12:47.963Z,12.80
2022-08-23T18:15:14.600Z,12.73
2022-08-23T18:17:41.183Z,13.15
2022-08-23T18:20:10.685Z,11.68
2022-08-23T18:22:37.760Z,12.98
2022-08-23T18:25:09.175Z,11.82
2022-08-23T18:27:54.958Z,13.48
2022-08-23T18:30:21.757Z,12.43
2022-08-23T18:32:48.374Z,12.60
2022-08-23T18:35:15.056Z,12.32
2022-08-23T18:37:42.128Z,13.68
2022-08-23T18:40:10.263Z,13.27
2022-08-23T18:42:37.218Z,13.43
2022-08-23T18:45:05.516Z,13.57
2022-08-23T18:47:32.051Z,13.65
2022-08-23T18:49:58.560Z,12.52
2022-08-23T18:52:27.132Z,13.75
2022-08-23T18:54:57.438Z,13.43
2022-08-23T18:57:23.959Z,12.10
2022-08-23T18:59:50.477Z,12.27
2022-08-23T19:02:17.694Z,14.70
2022-08-23T19:04:44.446Z,13.55
2022-08-23T19:07:10.951Z,13.02
2022-08-23T19:09:37.526Z,13.55
2022-08-23T19:12:06.549Z,13.55
2022-08-23T19:14:35.751Z,14.23
2022-08-23T19:17:03.795Z,14.85
2022-08-23T19:19:30.720Z,14.30
2022-08-23T19:21:58.415Z,13.45
2022-08-23T19:24:25.447Z,14.25
2022-08-23T19:26:52.613Z,12.88
2022-08-23T19:29:20.611Z,12.88
2022-08-23T19:31:48.605Z,13.48
2022-08-23T19:34:16.745Z,13.25
2022-08-23T19:36:47.066Z,13.10
2022-08-23T19:39:16.755Z,14.27
2022-08-23T19:41:43.797Z,13.93
2022-08-23T19:44:10.931Z,12.57
2022-08-23T19:46:41.871Z,14.77
2022-08-23T19:49:12.125Z,14.35
2022-08-23T19:51:39.635Z,14.05
2022-08-23T19:54:11.328Z,13.25
2022-08-23T19:56:43.332Z,14.63
2022-08-23T19:59:15.152Z,13.60
2022-08-23T20:01:42.243Z,12.63
2022-08-23T20:04:09.007Z,12.63
2022-08-23T20:06:35.716Z,13.45
2022-08-23T20:09:03.008Z,12.63
2022-08-23T20:11:32.030Z,12.50
2022-08-23T20:14:00.179Z,12.85
2022-08-23T20:16:27.511Z,13.23
2022-08-23T20:18:55.333Z,12.60
2022-08-23T20:21:23.628Z,12.77
2022-08-23T20:24:06.661Z,13.25
2022-08-23T20:26:37.316Z,12.40
2022-08-23T20:29:05.177Z,12.73
2022-08-23T20:31:35.805Z,12.85
2022-08-23T20:34:04.561Z,12.10
2022-08-23T20:36:31.763Z,13.57
2022-08-23T20:39:00.138Z,13.20
2022-08-23T20:41:35.722Z,12.90
2022-08-23T20:44:02.727Z,14.23
2022-08-23T20:46:29.814Z,12.95
2022-08-23T20:48:59.747Z,13.55
2022-08-23T20:51:28.494Z,13.55
2022-08-23T20:53:55.971Z,12.55
2022-08-23T20:56:23.474Z,13.38
2022-08-23T20:58:50.877Z,13.38
2022-08-23T21:01:18.665Z,12.95
2022-08-23T21:03:45.613Z,14.88
2022-08-23T21:06:21.868Z,13.40
2022-08-23T21:08:53.625Z,13.18
2022-08-23T21:11:21.910Z,13.48
2022-08-23T21:13:48.782Z,14.15
2022-08-23T21:16:16.666Z,14.88
2022-08-23T21:18:44.007Z,14.50
2022-08-23T21:21:10.872Z,14.05
2022-08-23T21:23:38.070Z,15.05
2022-08-23T21:26:06.428Z,14.20
2022-08-23T21:28:33.415Z,13.73
2022-08-23T21:31:17.281Z,15.18
2022-08-23T21:33:44.680Z,16.10
2022-08-23T21:36:13.626Z,15.07
2022-08-23T21:38:40.186Z,14.98
2022-08-23T21:41:11.310Z,16.00
2022-08-23T21:43:38.765Z,16.45
2022-08-23T21:46:07.253Z,15.68
2022-08-23T21:48:34.408Z,16.73
2022-08-23T21:51:01.348Z,15.63
2022-08-23T21:53:28.013Z,16.63
2022-08-23T21:55:54.550Z,16.52
2022-08-23T21:58:21.154Z,15.85
2022-08-23T22:00:47.894Z,18.25
2022-08-23T22:03:14.562Z,17.20
2022-08-23T22:05:43.294Z,17.92
2022-08-23T22:08:14.458Z,16.27
2022-08-23T22:10:50.126Z,17.73
2022-08-23T22:13:24.821Z,17.77
2022-08-23T22:15:51.352Z,18.10
2022-08-23T22:18:17.882Z,19.17
2022-08-23T22:20:44.432Z,17.40
2022-08-23T22:23:11.416Z,19.90
2022-08-23T22:25:37.966Z,18.92
2022-08-23T22:28:04.646Z,16.58
2022-08-23T22:30:32.257Z,16.45
2022-08-23T22:32:58.856Z,18.92
2022-08-23T22:35:25.530Z,19.25
2022-08-23T22:38:12.910Z,20.13
2022-08-23T22:40:40.143Z,19.35
2022-08-23T22:43:07.719Z,18.25
2022-08-23T22:45:34.327Z,18.70
2022-08-23T22:48:01.180Z,19.67
2022-08-23T22:50:28.038Z,17.95
2022-08-23T22:52:54.551Z,19.60
2022-08-23T22:55:21.572Z,18.25
2022-08-23T22:57:48.140Z,17.75
2022-08-23T23:00:16.208Z,18.60
2022-08-23T23:02:42.914Z,18.23
2022-08-23T23:05:09.578Z,18.73
2022-08-23T23:07:54.761Z,17.80
2022-08-23T23:10:21.261Z,18.30
2022-08-23T23:12:47.846Z,18.65
2022-08-23T23:15:14.353Z,18.35
2022-08-23T23:17:40.921Z,18.30
2022-08-23T23:20:26.448Z,17.48
2022-08-23T23:22:52.955Z,18.20
2022-08-23T23:25:20.022Z,17.40
2022-08-23T23:27:46.571Z,18.10
2022-08-23T23:30:13.413Z,17.60
2022-08-23T23:32:39.895Z,18.40
2022-08-23T23:35:10.643Z,18.20
2022-08-23T23:37:37.738Z,18.13
2022-08-23T23:40:05.908Z,17.83
2022-08-23T23:42:32.700Z,18.33
2022-08-23T23:44:59.228Z,17.52
2022-08-23T23:47:25.768Z,17.30
2022-08-23T23:49:52.473Z,18.02
2022-08-23T23:52:18.996Z,18.33
2022-08-23T23:54:46.265Z,18.60
2022-08-23T23:57:12.799Z,17.77
2022-08-23T23:59:39.941Z,18.20
